sensor_id;sensor_type;location;lat;lon;timestamp;temperature;humidity
19878;DHT22;10101;52.204;9.910;2023-03-01T00:01:16;-3.90;1.00
19878;DHT22;10101;52.204;9.910;2023-03-01T00:03:43;-3.90;1.00
19878;DHT22;10101;52.204;9.910;2023-03-01T00:06:11;-4.00;1.00
19878;DHT22;10101;52.204;9.910;2023-03-01T00:08:38;-3.90;1.00
19878;DHT22;10101;52.204;9.910;2023-03-01T00:11:07;-3.80;1.00
19878;DHT22;10101;52.204;9.910;2023-03-01T00:13:35;-3.90;1.00
19878;DHT22;10101;52.204;9.910;2023-03-01T00:16:05;-4.00;1.00
19878;DHT22;10101;52.204;9.910;2023-03-01T00:18:33;-4.00;78.10
19878;DHT22;10101;52.204;9.910;2023-03-01T00:21:00;-4.00;99.90
19878;DHT22;10101;52.204;9.910;2023-03-01T00:23:27;-4.10;47.10
19878;DHT22;10101;52.204;9.910;2023-03-01T00:25:54;-4.10;99.90
19878;DHT22;10101;52.204;9.910;2023-03-01T00:28:21;-4.10;99.90
19878;DHT22;10101;52.204;9.910;2023-03-01T00:30:48;-4.10;99.90
19878;DHT22;10101;52.204;9.910;2023-03-01T00:33:16;-4.10;99.90
19878;DHT22;10101;52.204;9.910;2023-03-01T00:35:42;-4.10;99.90
19878;DHT22;10101;52.204;9.910;2023-03-01T00:38:09;-4.10;99.90
19878;DHT22;10101;52.204;9.910;2023-03-01T00:40:36;-4.30;99.90
19878;DHT22;10101;52.204;9.910;2023-03-01T00:43:03;-4.20;99.90
19878;DHT22;10101;52.204;9.910;2023-03-01T00:45:32;-4.30;99.90
19878;DHT22;10101;52.204;9.910;2023-03-01T00:47:59;-4.30;99.90
19878;DHT22;10101;52.204;9.910;2023-03-01T00:50:27;-4.40;99.90
19878;DHT22;10101;52.204;9.910;2023-03-01T00:52:54;-4.30;99.90
19878;DHT22;10101;52.204;9.910;2023-03-01T00:55:21;-4.40;99.90
19878;DHT22;10101;52.204;9.910;2023-03-01T00:57:48;-4.40;1.00
19878;DHT22;10101;52.204;9.910;2023-03-01T01:00:16;-4.40;1.00
19878;DHT22;10101;52.204;9.910;2023-03-01T01:02:43;-4.30;1.00
19878;DHT22;10101;52.204;9.910;2023-03-01T01:05:11;-4.30;1.00
19878;DHT22;10101;52.204;9.910;2023-03-01T01:07:39;-4.50;1.00
19878;DHT22;10101;52.204;9.910;2023-03-01T01:10:07;-4.40;1.00
19878;DHT22;10101;52.204;9.910;2023-03-01T01:12:38;-4.40;1.00
19878;DHT22;10101;52.204;9.910;2023-03-01T01:15:05;-4.50;1.00
19878;DHT22;10101;52.204;9.910;2023-03-01T01:17:32;-4.50;1.00
19878;DHT22;10101;52.204;9.910;2023-03-01T01:19:59;-4.60;1.00
19878;DHT22;10101;52.204;9.910;2023-03-01T01:22:26;-4.60;1.00
19878;DHT22;10101;52.204;9.910;2023-03-01T01:24:54;-4.50;1.00
19878;DHT22;10101;52.204;9.910;2023-03-01T01:27:21;-4.60;1.00
19878;DHT22;10101;52.204;9.910;2023-03-01T01:29:48;-4.70;1.00
19878;DHT22;10101;52.204;9.910;2023-03-01T01:32:14;-4.80;1.00
19878;DHT22;10101;52.204;9.910;2023-03-01T01:34:41;-4.70;1.00
19878;DHT22;10101;52.204;9.910;2023-03-01T01:37:08;-4.70;1.00
19878;DHT22;10101;52.204;9.910;2023-03-01T01:39:35;-4.60;1.00
19878;DHT22;10101;52.204;9.910;2023-03-01T01:42:03;-4.70;1.00
19878;DHT22;10101;52.204;9.910;2023-03-01T01:44:30;-4.70;1.00
19878;DHT22;10101;52.204;9.910;2023-03-01T01:46:59;-4.70;1.00
19878;DHT22;10101;52.204;9.910;2023-03-01T01:49:30;-4.70;1.00
19878;DHT22;10101;52.204;9.910;2023-03-01T01:52:02;-4.80;1.00
19878;DHT22;10101;52.204;9.910;2023-03-01T01:54:37;-4.80;1.00
19878;DHT22;10101;52.204;9.910;2023-03-01T01:57:10;-4.80;11.20
19878;DHT22;10101;52.204;9.910;2023-03-01T01:59:38;-4.80;54.80
19878;DHT22;10101;52.204;9.910;2023-03-01T02:02:06;-4.90;1.00
19878;DHT22;10101;52.204;9.910;2023-03-01T02:04:33;-4.90;65.30
19878;DHT22;10101;52.204;9.910;2023-03-01T02:07:02;-4.90;48.30
19878;DHT22;10101;52.204;9.910;2023-03-01T02:09:30;-4.90;98.40
19878;DHT22;10101;52.204;9.910;2023-03-01T02:11:58;-4.80;99.90
19878;DHT22;10101;52.204;9.910;2023-03-01T02:14:27;-4.90;99.90
19878;DHT22;10101;52.204;9.910;2023-03-01T02:16:53;-4.80;99.90
19878;DHT22;10101;52.204;9.910;2023-03-01T02:19:31;-4.80;99.90
19878;DHT22;10101;52.204;9.910;2023-03-01T02:22:13;-5.30;99.90
19878;DHT22;10101;52.204;9.910;2023-03-01T02:24:47;-4.90;99.90
19878;DHT22;10101;52.204;9.910;2023-03-01T02:27:19;-5.00;99.90
19878;DHT22;10101;52.204;9.910;2023-03-01T02:29:51;-5.10;99.90
19878;DHT22;10101;52.204;9.910;2023-03-01T02:32:19;-5.10;99.90
19878;DHT22;10101;52.204;9.910;2023-03-01T02:34:50;-5.00;99.90
19878;DHT22;10101;52.204;9.910;2023-03-01T02:37:18;-5.00;99.90
19878;DHT22;10101;52.204;9.910;2023-03-01T02:39:54;-5.20;99.90
19878;DHT22;10101;52.204;9.910;2023-03-01T02:42:27;-5.20;99.90
19878;DHT22;10101;52.204;9.910;2023-03-01T02:44:56;-5.20;99.90
19878;DHT22;10101;52.204;9.910;2023-03-01T02:47:22;-5.20;99.90
19878;DHT22;10101;52.204;9.910;2023-03-01T02:49:49;-5.20;99.90
19878;DHT22;10101;52.204;9.910;2023-03-01T02:52:40;-5.20;99.90
19878;DHT22;10101;52.204;9.910;2023-03-01T02:55:11;-5.30;99.90
19878;DHT22;10101;52.204;9.910;2023-03-01T02:57:40;-5.40;99.90
19878;DHT22;10101;52.204;9.910;2023-03-01T03:00:11;-5.30;99.90
19878;DHT22;10101;52.204;9.910;2023-03-01T03:02:45;-5.30;1.00
19878;DHT22;10101;52.204;9.910;2023-03-01T03:05:14;-5.20;1.00
19878;DHT22;10101;52.204;9.910;2023-03-01T03:07:43;-5.40;99.90
19878;DHT22;10101;52.204;9.910;2023-03-01T03:10:12;-5.50;99.90
19878;DHT22;10101;52.204;9.910;2023-03-01T03:12:40;-5.40;1.00
19878;DHT22;10101;52.204;9.910;2023-03-01T03:15:09;-5.30;1.00
19878;DHT22;10101;52.204;9.910;2023-03-01T03:17:39;-5.30;1.00
19878;DHT22;10101;52.204;9.910;2023-03-01T03:20:09;-5.40;1.00
19878;DHT22;10101;52.204;9.910;2023-03-01T03:22:37;-5.30;1.00
19878;DHT22;10101;52.204;9.910;2023-03-01T03:25:05;-5.10;1.00
19878;DHT22;10101;52.204;9.910;2023-03-01T03:27:36;-5.40;1.00
19878;DHT22;10101;52.204;9.910;2023-03-01T03:30:04;-5.40;1.00
19878;DHT22;10101;52.204;9.910;2023-03-01T03:32:35;-5.40;1.00
19878;DHT22;10101;52.204;9.910;2023-03-01T03:35:03;-5.40;1.00
19878;DHT22;10101;52.204;9.910;2023-03-01T03:37:35;-5.50;1.00
19878;DHT22;10101;52.204;9.910;2023-03-01T03:40:19;-5.50;1.00
19878;DHT22;10101;52.204;9.910;2023-03-01T03:42:46;-5.50;1.00
19878;DHT22;10101;52.204;9.910;2023-03-01T03:45:13;-5.50;1.00
19878;DHT22;10101;52.204;9.910;2023-03-01T03:47:42;-5.50;1.00
19878;DHT22;10101;52.204;9.910;2023-03-01T03:50:10;-5.50;1.00
19878;DHT22;10101;52.204;9.910;2023-03-01T03:52:36;-5.50;1.00
19878;DHT22;10101;52.204;9.910;2023-03-01T03:55:04;-5.50;1.00
19878;DHT22;10101;52.204;9.910;2023-03-01T03:57:34;-5.50;1.00
19878;DHT22;10101;52.204;9.910;2023-03-01T04:00:01;-5.60;1.00
19878;DHT22;10101;52.204;9.910;2023-03-01T04:02:30;-5.60;1.00
19878;DHT22;10101;52.204;9.910;2023-03-01T04:04:58;-5.60;1.00
19878;DHT22;10101;52.204;9.910;2023-03-01T04:07:25;-5.50;1.00
19878;DHT22;10101;52.204;9.910;2023-03-01T04:09:52;-5.60;1.00
19878;DHT22;10101;52.204;9.910;2023-03-01T04:12:18;-5.60;1.00
19878;DHT22;10101;52.204;9.910;2023-03-01T04:14:48;-5.70;1.00
19878;DHT22;10101;52.204;9.910;2023-03-01T04:17:15;-5.60;1.00
19878;DHT22;10101;52.204;9.910;2023-03-01T04:19:42;-5.70;1.00
19878;DHT22;10101;52.204;9.910;2023-03-01T04:22:10;-5.80;1.00
19878;DHT22;10101;52.204;9.910;2023-03-01T04:24:42;-5.70;1.00
19878;DHT22;10101;52.204;9.910;2023-03-01T04:27:10;-5.70;1.00
19878;DHT22;10101;52.204;9.910;2023-03-01T04:29:37;-5.80;1.00
19878;DHT22;10101;52.204;9.910;2023-03-01T04:32:04;-5.80;1.00
19878;DHT22;10101;52.204;9.910;2023-03-01T04:34:30;-5.70;1.00
19878;DHT22;10101;52.204;9.910;2023-03-01T04:36:57;-5.70;1.00
19878;DHT22;10101;52.204;9.910;2023-03-01T04:39:25;-5.90;1.00
19878;DHT22;10101;52.204;9.910;2023-03-01T04:41:52;-5.80;1.00
19878;DHT22;10101;52.204;9.910;2023-03-01T04:44:19;-5.90;1.00
19878;DHT22;10101;52.204;9.910;2023-03-01T04:46:48;-5.90;1.00
19878;DHT22;10101;52.204;9.910;2023-03-01T04:49:14;-5.90;1.00
19878;DHT22;10101;52.204;9.910;2023-03-01T04:51:41;-5.90;1.00
19878;DHT22;10101;52.204;9.910;2023-03-01T04:54:08;-5.90;1.00
19878;DHT22;10101;52.204;9.910;2023-03-01T04:56:37;-5.90;1.00
19878;DHT22;10101;52.204;9.910;2023-03-01T04:59:04;-5.90;1.00
19878;DHT22;10101;52.204;9.910;2023-03-01T05:01:31;-5.90;1.00
19878;DHT22;10101;52.204;9.910;2023-03-01T05:03:57;-6.00;1.00
19878;DHT22;10101;52.204;9.910;2023-03-01T05:06:28;-5.90;1.00
19878;DHT22;10101;52.204;9.910;2023-03-01T05:08:55;-5.80;15.60
19878;DHT22;10101;52.204;9.910;2023-03-01T05:11:22;-5.60;1.00
19878;DHT22;10101;52.204;9.910;2023-03-01T05:13:50;-5.90;1.00
19878;DHT22;10101;52.204;9.910;2023-03-01T05:16:20;-5.90;1.00
19878;DHT22;10101;52.204;9.910;2023-03-01T05:18:47;-6.00;1.00
19878;DHT22;10101;52.204;9.910;2023-03-01T05:21:16;-6.00;1.00
19878;DHT22;10101;52.204;9.910;2023-03-01T05:23:43;-6.10;1.00
19878;DHT22;10101;52.204;9.910;2023-03-01T05:26:10;-6.10;1.00
19878;DHT22;10101;52.204;9.910;2023-03-01T05:28:38;-6.10;1.00
19878;DHT22;10101;52.204;9.910;2023-03-01T05:31:07;-6.20;1.00
19878;DHT22;10101;52.204;9.910;2023-03-01T05:33:35;-6.10;20.60
19878;DHT22;10101;52.204;9.910;2023-03-01T05:36:03;-6.10;59.50
19878;DHT22;10101;52.204;9.910;2023-03-01T05:38:30;-6.10;90.30
19878;DHT22;10101;52.204;9.910;2023-03-01T05:40:57;-6.00;99.90
19878;DHT22;10101;52.204;9.910;2023-03-01T05:43:23;-6.00;99.90
19878;DHT22;10101;52.204;9.910;2023-03-01T05:45:50;-6.10;99.90
19878;DHT22;10101;52.204;9.910;2023-03-01T05:48:18;-6.00;99.90
19878;DHT22;10101;52.204;9.910;2023-03-01T05:50:47;-6.00;99.90
19878;DHT22;10101;52.204;9.910;2023-03-01T05:53:16;-5.90;99.90
19878;DHT22;10101;52.204;9.910;2023-03-01T05:55:45;-6.10;99.90
19878;DHT22;10101;52.204;9.910;2023-03-01T05:58:15;-6.20;99.90
19878;DHT22;10101;52.204;9.910;2023-03-01T06:00:43;-6.20;99.90
19878;DHT22;10101;52.204;9.910;2023-03-01T06:03:11;-6.10;99.90
19878;DHT22;10101;52.204;9.910;2023-03-01T06:05:40;-6.20;99.90
19878;DHT22;10101;52.204;9.910;2023-03-01T06:08:08;-6.10;99.90
19878;DHT22;10101;52.204;9.910;2023-03-01T06:10:35;-6.10;99.90
19878;DHT22;10101;52.204;9.910;2023-03-01T06:13:02;-6.10;99.90
19878;DHT22;10101;52.204;9.910;2023-03-01T06:15:29;-6.10;99.90
19878;DHT22;10101;52.204;9.910;2023-03-01T06:17:56;-6.10;99.90
19878;DHT22;10101;52.204;9.910;2023-03-01T06:20:25;-6.10;99.90
19878;DHT22;10101;52.204;9.910;2023-03-01T06:22:53;-6.20;99.90
19878;DHT22;10101;52.204;9.910;2023-03-01T06:25:22;-6.30;99.90
19878;DHT22;10101;52.204;9.910;2023-03-01T06:27:49;-6.20;99.90
19878;DHT22;10101;52.204;9.910;2023-03-01T06:30:18;-6.20;99.90
19878;DHT22;10101;52.204;9.910;2023-03-01T06:32:45;-6.20;99.90
19878;DHT22;10101;52.204;9.910;2023-03-01T06:35:14;-6.20;99.90
19878;DHT22;10101;52.204;9.910;2023-03-01T06:37:43;-6.10;99.90
19878;DHT22;10101;52.204;9.910;2023-03-01T06:40:12;-6.10;99.90
19878;DHT22;10101;52.204;9.910;2023-03-01T06:42:41;-6.00;1.00
19878;DHT22;10101;52.204;9.910;2023-03-01T06:45:09;-5.90;1.00
19878;DHT22;10101;52.204;9.910;2023-03-01T06:47:36;-5.80;1.00
19878;DHT22;10101;52.204;9.910;2023-03-01T06:50:04;-5.80;1.00
19878;DHT22;10101;52.204;9.910;2023-03-01T06:52:30;-5.80;1.00
19878;DHT22;10101;52.204;9.910;2023-03-01T06:54:57;-5.70;1.00
19878;DHT22;10101;52.204;9.910;2023-03-01T06:57:25;-5.70;1.00
19878;DHT22;10101;52.204;9.910;2023-03-01T06:59:52;-5.60;1.00
19878;DHT22;10101;52.204;9.910;2023-03-01T07:02:19;-5.50;1.00
19878;DHT22;10101;52.204;9.910;2023-03-01T07:04:46;-5.40;1.00
19878;DHT22;10101;52.204;9.910;2023-03-01T07:07:12;-5.40;1.00
19878;DHT22;10101;52.204;9.910;2023-03-01T07:09:39;-5.40;1.00
19878;DHT22;10101;52.204;9.910;2023-03-01T07:12:06;-5.30;1.00
19878;DHT22;10101;52.204;9.910;2023-03-01T07:14:35;-5.20;1.00
19878;DHT22;10101;52.204;9.910;2023-03-01T07:17:01;-5.20;1.00
19878;DHT22;10101;52.204;9.910;2023-03-01T07:19:28;-5.00;1.00
19878;DHT22;10101;52.204;9.910;2023-03-01T07:21:55;-4.90;1.00
19878;DHT22;10101;52.204;9.910;2023-03-01T07:24:22;-4.80;1.00
19878;DHT22;10101;52.204;9.910;2023-03-01T07:26:49;-4.70;23.80
19878;DHT22;10101;52.204;9.910;2023-03-01T07:29:16;-4.60;99.90
19878;DHT22;10101;52.204;9.910;2023-03-01T07:31:45;-4.60;99.90
19878;DHT22;10101;52.204;9.910;2023-03-01T07:34:12;-4.50;99.90
19878;DHT22;10101;52.204;9.910;2023-03-01T07:36:38;-4.40;99.90
19878;DHT22;10101;52.204;9.910;2023-03-01T07:39:09;-4.30;99.90
19878;DHT22;10101;52.204;9.910;2023-03-01T07:41:35;-4.20;99.90
19878;DHT22;10101;52.204;9.910;2023-03-01T07:44:02;-4.10;1.00
19878;DHT22;10101;52.204;9.910;2023-03-01T07:46:29;-3.90;1.00
19878;DHT22;10101;52.204;9.910;2023-03-01T07:48:57;-3.80;1.00
19878;DHT22;10101;52.204;9.910;2023-03-01T07:51:24;-3.70;1.00
19878;DHT22;10101;52.204;9.910;2023-03-01T07:53:51;-3.70;47.10
19878;DHT22;10101;52.204;9.910;2023-03-01T07:56:17;-3.50;99.90
19878;DHT22;10101;52.204;9.910;2023-03-01T07:58:45;-3.30;1.00
19878;DHT22;10101;52.204;9.910;2023-03-01T08:01:14;-3.20;1.00
19878;DHT22;10101;52.204;9.910;2023-03-01T08:03:41;-3.00;1.00
19878;DHT22;10101;52.204;9.910;2023-03-01T08:06:12;-2.90;1.00
19878;DHT22;10101;52.204;9.910;2023-03-01T08:08:39;-2.90;2.90
19878;DHT22;10101;52.204;9.910;2023-03-01T08:11:07;-2.80;99.90
19878;DHT22;10101;52.204;9.910;2023-03-01T08:13:34;-2.70;99.90
19878;DHT22;10101;52.204;9.910;2023-03-01T08:16:01;-2.60;99.90
19878;DHT22;10101;52.204;9.910;2023-03-01T08:18:28;-2.50;99.90
19878;DHT22;10101;52.204;9.910;2023-03-01T08:20:55;-2.50;99.90
19878;DHT22;10101;52.204;9.910;2023-03-01T08:23:24;-2.30;99.90
19878;DHT22;10101;52.204;9.910;2023-03-01T08:25:51;-2.30;99.90
19878;DHT22;10101;52.204;9.910;2023-03-01T08:28:18;-2.20;99.90
19878;DHT22;10101;52.204;9.910;2023-03-01T08:30:45;-2.00;99.90
19878;DHT22;10101;52.204;9.910;2023-03-01T08:33:11;-1.90;99.90
19878;DHT22;10101;52.204;9.910;2023-03-01T08:35:38;-1.70;99.90
19878;DHT22;10101;52.204;9.910;2023-03-01T08:38:05;-1.60;99.90
19878;DHT22;10101;52.204;9.910;2023-03-01T08:40:33;-1.30;1.00
19878;DHT22;10101;52.204;9.910;2023-03-01T08:43:00;-1.00;1.00
19878;DHT22;10101;52.204;9.910;2023-03-01T08:45:26;-0.70;34.80
19878;DHT22;10101;52.204;9.910;2023-03-01T08:47:53;-0.30;99.90
19878;DHT22;10101;52.204;9.910;2023-03-01T08:50:20;0.10;1.00
19878;DHT22;10101;52.204;9.910;2023-03-01T08:52:46;0.30;1.00
19878;DHT22;10101;52.204;9.910;2023-03-01T08:55:13;0.10;1.00
19878;DHT22;10101;52.204;9.910;2023-03-01T08:57:43;0.20;7.60
19878;DHT22;10101;52.204;9.910;2023-03-01T09:00:11;0.10;1.00
19878;DHT22;10101;52.204;9.910;2023-03-01T09:02:40;0.20;1.00
19878;DHT22;10101;52.204;9.910;2023-03-01T09:05:07;0.70;99.90
19878;DHT22;10101;52.204;9.910;2023-03-01T09:07:34;-0.10;1.00
19878;DHT22;10101;52.204;9.910;2023-03-01T09:10:01;0.30;99.90
19878;DHT22;10101;52.204;9.910;2023-03-01T09:12:27;0.30;1.00
19878;DHT22;10101;52.204;9.910;2023-03-01T09:14:56;0.20;1.00
19878;DHT22;10101;52.204;9.910;2023-03-01T09:17:22;0.70;1.00
19878;DHT22;10101;52.204;9.910;2023-03-01T09:19:49;0.90;1.00
19878;DHT22;10101;52.204;9.910;2023-03-01T09:22:16;1.10;1.00
19878;DHT22;10101;52.204;9.910;2023-03-01T09:24:43;1.30;1.00
19878;DHT22;10101;52.204;9.910;2023-03-01T09:27:09;1.50;1.00
19878;DHT22;10101;52.204;9.910;2023-03-01T09:29:38;1.90;1.00
19878;DHT22;10101;52.204;9.910;2023-03-01T09:32:06;1.90;99.90
19878;DHT22;10101;52.204;9.910;2023-03-01T09:34:33;1.40;99.90
19878;DHT22;10101;52.204;9.910;2023-03-01T09:37:20;1.80;99.90
19878;DHT22;10101;52.204;9.910;2023-03-01T09:39:47;2.40;99.90
19878;DHT22;10101;52.204;9.910;2023-03-01T09:42:14;2.00;1.00
19878;DHT22;10101;52.204;9.910;2023-03-01T09:44:45;2.00;1.00
19878;DHT22;10101;52.204;9.910;2023-03-01T09:47:18;2.30;1.00
19878;DHT22;10101;52.204;9.910;2023-03-01T09:49:49;2.40;1.00
19878;DHT22;10101;52.204;9.910;2023-03-01T09:52:26;2.20;99.90
19878;DHT22;10101;52.204;9.910;2023-03-01T09:54:55;2.50;99.90
19878;DHT22;10101;52.204;9.910;2023-03-01T09:57:33;2.80;99.90
19878;DHT22;10101;52.204;9.910;2023-03-01T10:00:13;2.90;99.90
19878;DHT22;10101;52.204;9.910;2023-03-01T10:02:46;3.10;99.90
19878;DHT22;10101;52.204;9.910;2023-03-01T10:05:29;3.00;1.00
19878;DHT22;10101;52.204;9.910;2023-03-01T10:08:27;2.80;1.00
19878;DHT22;10101;52.204;9.910;2023-03-01T10:10:56;3.10;1.00
19878;DHT22;10101;52.204;9.910;2023-03-01T10:13:26;3.40;1.00
19878;DHT22;10101;52.204;9.910;2023-03-01T10:15:56;3.40;1.00
19878;DHT22;10101;52.204;9.910;2023-03-01T10:18:26;3.70;1.00
19878;DHT22;10101;52.204;9.910;2023-03-01T10:20:57;3.40;1.00
19878;DHT22;10101;52.204;9.910;2023-03-01T10:23:25;3.50;1.00
19878;DHT22;10101;52.204;9.910;2023-03-01T10:26:05;3.50;99.90
19878;DHT22;10101;52.204;9.910;2023-03-01T10:28:41;3.60;99.90
19878;DHT22;10101;52.204;9.910;2023-03-01T10:31:12;3.70;99.90
19878;DHT22;10101;52.204;9.910;2023-03-01T10:33:41;3.60;99.90
19878;DHT22;10101;52.204;9.910;2023-03-01T10:36:08;3.50;99.90
19878;DHT22;10101;52.204;9.910;2023-03-01T10:38:48;3.90;75.80
19878;DHT22;10101;52.204;9.910;2023-03-01T10:41:18;3.40;53.20
19878;DHT22;10101;52.204;9.910;2023-03-01T10:43:46;3.40;1.00
19878;DHT22;10101;52.204;9.910;2023-03-01T10:46:24;3.70;1.00
19878;DHT22;10101;52.204;9.910;2023-03-01T10:49:14;3.60;1.00
19878;DHT22;10101;52.204;9.910;2023-03-01T10:51:42;3.50;1.00
19878;DHT22;10101;52.204;9.910;2023-03-01T10:54:17;3.60;1.00
19878;DHT22;10101;52.204;9.910;2023-03-01T10:56:49;3.80;1.00
19878;DHT22;10101;52.204;9.910;2023-03-01T10:59:24;4.10;1.00
19878;DHT22;10101;52.204;9.910;2023-03-01T11:02:09;4.20;1.00
19878;DHT22;10101;52.204;9.910;2023-03-01T11:04:39;4.10;1.00
19878;DHT22;10101;52.204;9.910;2023-03-01T11:07:07;4.20;1.00
19878;DHT22;10101;52.204;9.910;2023-03-01T11:09:34;4.30;1.00
19878;DHT22;10101;52.204;9.910;2023-03-01T11:12:08;4.40;1.00
19878;DHT22;10101;52.204;9.910;2023-03-01T11:14:46;4.60;1.00
19878;DHT22;10101;52.204;9.910;2023-03-01T11:17:17;4.70;1.00
19878;DHT22;10101;52.204;9.910;2023-03-01T11:20:00;4.70;1.00
19878;DHT22;10101;52.204;9.910;2023-03-01T11:22:27;4.70;99.90
19878;DHT22;10101;52.204;9.910;2023-03-01T11:24:55;4.80;99.90
19878;DHT22;10101;52.204;9.910;2023-03-01T11:27:26;4.80;99.90
19878;DHT22;10101;52.204;9.910;2023-03-01T11:29:57;4.80;99.90
19878;DHT22;10101;52.204;9.910;2023-03-01T11:32:29;4.80;99.90
19878;DHT22;10101;52.204;9.910;2023-03-01T11:35:03;4.80;99.90
19878;DHT22;10101;52.204;9.910;2023-03-01T11:37:36;4.90;99.90
19878;DHT22;10101;52.204;9.910;2023-03-01T11:40:12;4.80;95.60
19878;DHT22;10101;52.204;9.910;2023-03-01T11:42:47;4.70;17.80
19878;DHT22;10101;52.204;9.910;2023-03-01T11:45:14;4.80;1.00
19878;DHT22;10101;52.204;9.910;2023-03-01T11:47:57;4.90;1.00
19878;DHT22;10101;52.204;9.910;2023-03-01T11:50:30;4.80;1.00
19878;DHT22;10101;52.204;9.910;2023-03-01T11:53:28;4.90;1.00
19878;DHT22;10101;52.204;9.910;2023-03-01T11:56:05;4.80;1.00
19878;DHT22;10101;52.204;9.910;2023-03-01T11:58:48;4.70;1.00
19878;DHT22;10101;52.204;9.910;2023-03-01T12:01:36;4.90;1.00
19878;DHT22;10101;52.204;9.910;2023-03-01T12:04:21;4.90;1.00
19878;DHT22;10101;52.204;9.910;2023-03-01T12:06:57;5.10;99.90
19878;DHT22;10101;52.204;9.910;2023-03-01T12:09:43;4.80;99.90
19878;DHT22;10101;52.204;9.910;2023-03-01T12:12:29;4.90;99.90
19878;DHT22;10101;52.204;9.910;2023-03-01T12:15:24;5.20;99.90
19878;DHT22;10101;52.204;9.910;2023-03-01T12:18:18;5.20;99.90
19878;DHT22;10101;52.204;9.910;2023-03-01T12:20:55;5.20;99.90
19878;DHT22;10101;52.204;9.910;2023-03-01T12:23:47;5.30;99.90
19878;DHT22;10101;52.204;9.910;2023-03-01T12:26:22;5.20;85.60
19878;DHT22;10101;52.204;9.910;2023-03-01T12:29:01;5.40;67.10
19878;DHT22;10101;52.204;9.910;2023-03-01T12:35:11;5.50;1.00
19878;DHT22;10101;52.204;9.910;2023-03-01T12:37:49;5.60;1.00
19878;DHT22;10101;52.204;9.910;2023-03-01T12:40:42;5.50;1.00
19878;DHT22;10101;52.204;9.910;2023-03-01T12:43:21;5.60;1.00
19878;DHT22;10101;52.204;9.910;2023-03-01T12:46:01;5.50;1.00
19878;DHT22;10101;52.204;9.910;2023-03-01T12:48:46;5.70;1.00
19878;DHT22;10101;52.204;9.910;2023-03-01T12:51:19;5.80;1.00
19878;DHT22;10101;52.204;9.910;2023-03-01T12:53:49;5.70;1.00
19878;DHT22;10101;52.204;9.910;2023-03-01T12:56:20;5.70;1.00
19878;DHT22;10101;52.204;9.910;2023-03-01T12:58:55;5.80;1.00
19878;DHT22;10101;52.204;9.910;2023-03-01T13:01:33;6.00;1.00
19878;DHT22;10101;52.204;9.910;2023-03-01T13:04:18;6.00;1.00
19878;DHT22;10101;52.204;9.910;2023-03-01T13:06:55;5.90;1.00
19878;DHT22;10101;52.204;9.910;2023-03-01T13:09:29;6.20;1.00
19878;DHT22;10101;52.204;9.910;2023-03-01T13:11:59;6.40;1.00
19878;DHT22;10101;52.204;9.910;2023-03-01T13:14:37;6.50;1.00
19878;DHT22;10101;52.204;9.910;2023-03-01T13:17:32;6.40;1.00
19878;DHT22;10101;52.204;9.910;2023-03-01T13:19:59;6.40;99.90
19878;DHT22;10101;52.204;9.910;2023-03-01T13:22:29;6.40;1.00
19878;DHT22;10101;52.204;9.910;2023-03-01T13:25:15;6.40;1.00
19878;DHT22;10101;52.204;9.910;2023-03-01T13:27:44;6.30;99.90
19878;DHT22;10101;52.204;9.910;2023-03-01T13:30:41;6.20;99.90
19878;DHT22;10101;52.204;9.910;2023-03-01T13:33:41;6.60;99.90
19878;DHT22;10101;52.204;9.910;2023-03-01T13:36:10;6.50;99.90
19878;DHT22;10101;52.204;9.910;2023-03-01T13:38:45;6.50;99.90
19878;DHT22;10101;52.204;9.910;2023-03-01T13:41:13;6.40;99.90
19878;DHT22;10101;52.204;9.910;2023-03-01T13:43:43;6.40;99.90
19878;DHT22;10101;52.204;9.910;2023-03-01T13:46:15;6.30;99.90
19878;DHT22;10101;52.204;9.910;2023-03-01T13:48:45;6.30;99.90
19878;DHT22;10101;52.204;9.910;2023-03-01T13:51:13;6.20;99.90
19878;DHT22;10101;52.204;9.910;2023-03-01T13:53:43;6.30;76.90
19878;DHT22;10101;52.204;9.910;2023-03-01T13:56:13;6.40;80.50
19878;DHT22;10101;52.204;9.910;2023-03-01T13:58:49;6.30;58.00
19878;DHT22;10101;52.204;9.910;2023-03-01T14:01:27;6.50;1.00
19878;DHT22;10101;52.204;9.910;2023-03-01T14:03:55;6.40;1.00
19878;DHT22;10101;52.204;9.910;2023-03-01T14:06:23;6.40;1.00
19878;DHT22;10101;52.204;9.910;2023-03-01T14:08:59;6.30;1.00
19878;DHT22;10101;52.204;9.910;2023-03-01T14:12:13;6.40;1.00
19878;DHT22;10101;52.204;9.910;2023-03-01T14:14:51;6.50;1.00
19878;DHT22;10101;52.204;9.910;2023-03-01T14:17:40;6.50;1.00
19878;DHT22;10101;52.204;9.910;2023-03-01T14:20:18;6.50;1.00
19878;DHT22;10101;52.204;9.910;2023-03-01T14:22:46;6.50;1.00
19878;DHT22;10101;52.204;9.910;2023-03-01T14:25:21;6.60;1.00
19878;DHT22;10101;52.204;9.910;2023-03-01T14:27:54;6.50;1.00
19878;DHT22;10101;52.204;9.910;2023-03-01T14:30:24;6.50;1.00
19878;DHT22;10101;52.204;9.910;2023-03-01T14:32:54;6.50;1.00
19878;DHT22;10101;52.204;9.910;2023-03-01T14:35:23;6.50;1.00
19878;DHT22;10101;52.204;9.910;2023-03-01T14:37:50;6.50;1.00
19878;DHT22;10101;52.204;9.910;2023-03-01T14:40:23;6.50;1.00
19878;DHT22;10101;52.204;9.910;2023-03-01T14:42:51;6.60;1.00
19878;DHT22;10101;52.204;9.910;2023-03-01T14:45:18;6.50;1.00
19878;DHT22;10101;52.204;9.910;2023-03-01T14:47:46;6.50;1.00
19878;DHT22;10101;52.204;9.910;2023-03-01T14:50:21;6.60;1.00
19878;DHT22;10101;52.204;9.910;2023-03-01T14:52:50;6.70;1.00
19878;DHT22;10101;52.204;9.910;2023-03-01T14:55:18;6.70;1.00
19878;DHT22;10101;52.204;9.910;2023-03-01T14:57:48;6.80;1.00
19878;DHT22;10101;52.204;9.910;2023-03-01T15:00:18;7.00;1.00
19878;DHT22;10101;52.204;9.910;2023-03-01T15:02:48;7.40;1.00
19878;DHT22;10101;52.204;9.910;2023-03-01T15:05:26;11.00;1.00
19878;DHT22;10101;52.204;9.910;2023-03-01T15:07:55;13.60;1.00
19878;DHT22;10101;52.204;9.910;2023-03-01T15:10:25;14.90;79.10
19878;DHT22;10101;52.204;9.910;2023-03-01T15:12:52;15.90;99.90
19878;DHT22;10101;52.204;9.910;2023-03-01T15:15:31;16.60;99.90
19878;DHT22;10101;52.204;9.910;2023-03-01T15:18:03;15.60;99.90
19878;DHT22;10101;52.204;9.910;2023-03-01T15:20:31;13.70;99.90
19878;DHT22;10101;52.204;9.910;2023-03-01T15:23:01;12.00;1.00
19878;DHT22;10101;52.204;9.910;2023-03-01T15:25:30;11.70;1.00
19878;DHT22;10101;52.204;9.910;2023-03-01T15:27:59;12.30;1.00
19878;DHT22;10101;52.204;9.910;2023-03-01T15:30:30;12.00;1.00
19878;DHT22;10101;52.204;9.910;2023-03-01T15:33:28;12.40;1.00
19878;DHT22;10101;52.204;9.910;2023-03-01T15:35:57;12.40;1.00
19878;DHT22;10101;52.204;9.910;2023-03-01T15:38:33;13.00;1.00
19878;DHT22;10101;52.204;9.910;2023-03-01T15:41:02;12.20;1.00
19878;DHT22;10101;52.204;9.910;2023-03-01T15:43:43;11.40;1.00
19878;DHT22;10101;52.204;9.910;2023-03-01T15:46:20;10.90;1.00
19878;DHT22;10101;52.204;9.910;2023-03-01T15:48:52;10.70;1.00
19878;DHT22;10101;52.204;9.910;2023-03-01T15:51:23;10.30;1.00
19878;DHT22;10101;52.204;9.910;2023-03-01T15:53:53;10.00;99.90
19878;DHT22;10101;52.204;9.910;2023-03-01T15:56:20;9.80;99.90
19878;DHT22;10101;52.204;9.910;2023-03-01T15:58:47;9.50;99.90
19878;DHT22;10101;52.204;9.910;2023-03-01T16:01:15;9.50;99.90
19878;DHT22;10101;52.204;9.910;2023-03-01T16:03:43;8.70;99.90
19878;DHT22;10101;52.204;9.910;2023-03-01T16:06:12;8.10;99.90
19878;DHT22;10101;52.204;9.910;2023-03-01T16:08:39;7.60;99.90
19878;DHT22;10101;52.204;9.910;2023-03-01T16:11:13;7.30;99.90